메인 페이지
METAR-TAF:

METAR-TAF

공항 :

클린턴 / Burns Flat, 오클라호마, 미국

위도: 35-21-24N, 경도: 099-12-13W, 고도: 585m

현재 날씨관측

예보는 23분 전, 03:53시(UTC)에 발표되었습니다.
남남서4kt
온도 8°C
습도 66%
기압 1018 hPa
시정: 16.1km
맑음

METAR: KCSM 160353Z 20004KT 10SM CLR 08/02 A3007 RMK AO2 SLP184 T00780022

시각: 22:16 (04:16 UTC)

예보

예보는 4 시간 42분 전, 23:34시(UTC)에 발표되었습니다.
예보 대상 시간: 16일 00시부터 16일 24시까지 (UTC)
서남서7kt
시정: 10km
고도 25000ft 상공 구름 보통
16일 0300시부터 (UTC)
11kt
시정: 10km
고도 25000ft 상공 구름 보통
16일 1800시부터 (UTC)
남동10kt
시정: 10km
고도 25000ft 상공 구름 조금

TAF: KCSM 152334Z 1600/1624 25007KT P6SM SCT250 FM160300 36011KT P6SM SCT250 FM161800 14010KT P6SM FEW250

4,000개 이상의 공항 관측 자료 및 예보 (METAR 및 TAF 보고).

지도상에서 검색 가능한 기상관측소가 노란 점과 빨간 점으로 표시되어 있습니다.

기상관측소 명을 보려면 표시 위로 마우스를 이동하세요.

날씨 관측과 예보를 보려면 클릭하세요.

지도 변경 : 확대하려면 엑스 표시가 있는 녹색 버튼, 축소하려면 빼기 표시가 있는 녹색 버튼, 다음 페이지의 지도를 보려면 녹색 화살표를 클릭하세요.


METAR-TAF: